Aeroporto :
LOGIN :

Iscrizione | Disclaimer

   EN    FR    IT 

 










Sommario :    VFR   VFR Marginale   IFR   IFR Intensivo   IFR Molto Intensivo
Visibilità : 
Base nubi : 
>= 8 km
>= 3000ft
5 / 8 km
1000 / 3000 ft
1500m / 5 km
500 / 1000 ft
800 / 1500m
200 / 500 ft
< 800m
< 200 ft
Simboli :   Temporali  Nebbia  Neve Forte  Precipitazioni Forti  Vento > 20 kt
SIGMETs :   Varie  Temporali  Ghiacco  Turbolenza  Onda orograficha  Ceneri Vulcaniche






- Altitudine del aeroporto : 302 ft
- Codice IATA : CGN


EDDK - Cologne Bonn

ULTIMO METAR :
  • 082050Z 23015KT 9999 FEW033 BKN037 09/04 Q1001 TEMPO 23020G30KT

METARs OBSOLETI :
  • 082020Z 22011KT 9999 VCSH FEW033 09/05 Q1000 TEMPO 23015G25KT SHRA BKN025CB
  • 081950Z 22009KT 9999 VCSH FEW031 SCT048 08/04 Q1001 TEMPO 23015G25KT SHRA BKN025CB
  • 081920Z 22010KT 9999 FEW033 SCT036 08/04 Q1001 TEMPO 23015G25KT SHRA BKN025CB
  • 081850Z 21006KT 180V240 CAVOK 08/04 Q1001 NOSIG
  • 081820Z 18007KT CAVOK 07/04 Q1001 NOSIG

TAF TAF EDDK
Valido dal 08 a 18 ore il 10 a 00 ore UTC


081700Z 0818/0924 22012KT 9999 SCT025
PROB30
TEMPO 0820/0902 23015G30KT SHRA BKN025CB
TEMPO 0902/0910 21015G25KT
TEMPO 0905/0910 SHRA BKN020CB
TEMPO 0910/0916 27015G25KT SHRA BKN020CB
BECMG 0911/0914 29012KT



MetMap, La meteo Aeronautica in un colpo d'occhio ! - Copyright ORBIFLY Dicembre 2007 - Disclaimer

ORBIFLY MET'MAP TEAM :

Programmazione e sviluppo : Alexandra Zaïnal
Concezione : Baudouin d'Aumeries
Aiuto per la programmazione : Marc-Olivier Méhu
Supporto tecnico e logistico : Manuel Goepfert
Aiuto per la traduzione : Arnaldo La Scala

Contatto : metmap@orbifly.com




FONTI E CREDITI :

   NOAA